Hi'Ialakai — WTEY — position and weather

sailwx.info

Track history (hours):
 
Tides and Currents Weather Stations Pressure Air Temp Water Temp Dewpoint Dewpoint Depression Visibility Wind Speed Wind Dir Waves Ship Positions

Oceanographic research ship Hi'Ialakai (USA)

Detailed information on ship capabilities available from University of Delaware's Ocean Information Center.

Last reported at 2017-Aug-16 02:47 UTC. Time now 2017-Aug-20 03:56 UTC.
Position N 26°30' W 173°30'.

Type: Passenger vessel. MMSI: 368926089.

Wind from 100 at 12 knots

Barometer 1017.0 mb
Air temperature 31.5 ° C
Water temperature 28.3 ° C

Date/timePositionNaut miles runAvg speedWind from/ knotsBaromVisibWave heightAir tempDewpointWater temp
2017-Aug-16 02:47N 26°30' W 173°30'5 5.4 100 / 121017.0 31.5 28.3
2017-Aug-16 01:47N 26°30' W 173°24'1212.5 110 / 111017.0 32.2 28.3
2017-Aug-16 00:48N 26°24' W 173°12'24 8.2 120 / 111017.5 32.1 28.1
2017-Aug-15 21:51N 26°06' W 172°54'5 5.5 110 / 111018.2 30.2 28.0
2017-Aug-15 20:52N 26°06' W 172°48'0 0.0 110 / 111018.0 29.4 27.8
2017-Aug-15 19:53N 26°06' W 172°48'1212.5 120 / 131018.2 28.7 27.8
2017-Aug-15 18:54N 26°00' W 172°36'8 8.2 110 / 101018.0 29.3 27.8
2017-Aug-15 17:55N 25°54' W 172°30'5 5.5 110 / 101017.6 27.8 27.7
2017-Aug-15 16:56N 25°54' W 172°24'8 8.1 120 / 71017.1 26.3 27.7
2017-Aug-15 15:56N 25°48' W 172°18'1212.6 090 / 51017.1 27.7 27.8
2017-Aug-15 14:57N 25°42' W 172°06'8 8.2 080 / 101016.7 27.5 27.8
2017-Aug-15 13:58N 25°36' W 172°00'5 5.5 080 / 131016.5 27.1 27.8
2017-Aug-15 12:59N 25°36' W 171°54'214 9.2 090 / 111016.7 28.1 27.8
2017-Aug-14 13:46N 24°24' W 168°12'1212.7 090 / 131016.7 27.9 28.0
2017-Aug-14 12:47N 24°18' W 168°00'1111.1 090 / 131017.1 27.5 28.1
2017-Aug-14 11:48N 24°18' W 167°48'1212.7 080 / 131017.3 28.2 28.1
2017-Aug-14 10:49N 24°12' W 167°36'1212.7 090 / 131017.8 28.0 28.0
2017-Aug-14 09:50N 24°06' W 167°24'5 5.6 090 / 131018.0 28.1 27.9
2017-Aug-14 08:51N 24°06' W 167°18'1212.7 080 / 141018.4 27.8 27.9
2017-Aug-14 07:52N 24°00' W 167°06'1111.1 090 / 151018.1 27.5 28.0
2017-Aug-14 06:53N 24°00' W 166°54'1312.5 090 / 131018.0 26.7 28.0
2017-Aug-14 05:53N 23°54' W 166°42'1111.2 070 / 131017.5 27.5 28.1
2017-Aug-14 04:54N 23°54' W 166°30'1312.7 080 / 111017.1 29.5 28.1
2017-Aug-14 03:55N 23°48' W 166°18'0 0.0 100 / 121016.9 29.2 28.2
2017-Aug-14 02:56N 23°48' W 166°18'0 0.0 100 / 121016.8 28.8 28.6
2017-Aug-14 01:57N 23°48' W 166°18'0 0.0 050 / 51016.9 30.4 28.6
2017-Aug-14 00:58N 23°48' W 166°18'12 3.7 080 / 101017.0 29.3 28.5
2017-Aug-13 21:46N 23°36' W 166°18'6 6.1 100 / 161018.2 28.6 9.327.9
2017-Aug-13 20:47N 23°30' W 166°18'6 6.1 090 / 131018.6 28.746.227.8
2017-Aug-13 19:48N 23°24' W 166°18'1312.8 090 / 111018.5 30.2 27.9
2017-Aug-13 18:49N 23°18' W 166°06'1111.2 090 / 131018.3 30.1 27.9
2017-Aug-13 17:50N 23°18' W 165°54'1312.8 090 / 131017.9 28.5 28.0
2017-Aug-13 16:51N 23°12' W 165°42'1111.0 090 / 141017.6 27.7 28.0
2017-Aug-13 15:51N 23°12' W 165°30'8 8.9 110 / 91017.4 26.6 28.0
2017-Aug-13 14:56N 23°06' W 165°24'1111.2 090 / 141017.1 27.8 28.0
2017-Aug-13 13:57N 23°06' W 165°12'1312.8 090 / 141017.1 27.7 28.0
2017-Aug-13 12:58N 23°00' W 165°00'1111.2 090 / 131017.0 27.8 27.7
2017-Aug-13 11:59N 23°00' W 164°48'2310.3 090 / 131017.4 27.9 27.8
2017-Aug-13 09:46N 22°54' W 164°24'1312.8 090 / 131018.0 28.2 27.8
2017-Aug-13 08:47N 22°48' W 164°12'1111.2 090 / 131018.0 28.1 28.0
2017-Aug-13 07:48N 22°48' W 164°00'8 8.3 090 / 131017.7 28.1 28.0
2017-Aug-13 06:49N 22°42' W 163°54'1111.3 090 / 131017.4 28.0 28.0
2017-Aug-13 05:50N 22°42' W 163°42'1312.8 090 / 131017.0 28.2 28.0
2017-Aug-13 04:51N 22°36' W 163°30'6 5.6 090 / 131016.7 29.2 28.0
2017-Aug-13 03:52N 22°36' W 163°24'1312.6 090 / 131016.5 30.5 28.1
2017-Aug-13 02:52N 22°30' W 163°12'1111.3 090 / 121016.5 30.5 28.2
2017-Aug-13 01:53N 22°30' W 163°00'1312.8 090 / 131016.5 29.5 28.1
2017-Aug-13 00:54N 22°24' W 162°48'18 9.0 080 / 131017.0 29.9 28.2
2017-Aug-12 22:56N 22°18' W 162°30'1111.3 080 / 131017.8 29.6 27.8
2017-Aug-12 21:57N 22°18' W 162°18'1312.8 090 / 131018.3 29.9 27.6
2017-Aug-12 20:58N 22°12' W 162°06'6 5.6 090 / 141018.4 29.5 27.5
2017-Aug-12 19:59N 22°12' W 162°00'   070 / 141018.5 28.9 27.6
Track history (hours):
 
Tides and Currents Weather Stations Pressure Air Temp Water Temp Dewpoint Dewpoint Depression Visibility Wind Speed Wind Dir Waves Ship Positions

Oceanographic research ship Hi'Ialakai (USA)

Detailed information on ship capabilities available from University of Delaware's Ocean Information Center.

Last reported at 2017-Aug-16 02:47 UTC. Time now 2017-Aug-20 03:56 UTC.
Position N 26°30' W 173°30'.

Type: Passenger vessel. MMSI: 368926089.

Wind from 100 at 12 knots

Barometer 1017.0 mb
Air temperature 31.5 ° C
Water temperature 28.3 ° C

Date/timePositionNaut miles runAvg speedWind from/ knotsBaromVisibWave heightAir tempDewpointWater temp
2017-Aug-16 02:47N 26°30' W 173°30'5 5.4 100 / 121017.0 31.5 28.3
2017-Aug-16 01:47N 26°30' W 173°24'1212.5 110 / 111017.0 32.2 28.3
2017-Aug-16 00:48N 26°24' W 173°12'24 8.2 120 / 111017.5 32.1 28.1
2017-Aug-15 21:51N 26°06' W 172°54'5 5.5 110 / 111018.2 30.2 28.0
2017-Aug-15 20:52N 26°06' W 172°48'0 0.0 110 / 111018.0 29.4 27.8
2017-Aug-15 19:53N 26°06' W 172°48'1212.5 120 / 131018.2 28.7 27.8
2017-Aug-15 18:54N 26°00' W 172°36'8 8.2 110 / 101018.0 29.3 27.8
2017-Aug-15 17:55N 25°54' W 172°30'5 5.5 110 / 101017.6 27.8 27.7
2017-Aug-15 16:56N 25°54' W 172°24'8 8.1 120 / 71017.1 26.3 27.7
2017-Aug-15 15:56N 25°48' W 172°18'1212.6 090 / 51017.1 27.7 27.8
2017-Aug-15 14:57N 25°42' W 172°06'8 8.2 080 / 101016.7 27.5 27.8
2017-Aug-15 13:58N 25°36' W 172°00'5 5.5 080 / 131016.5 27.1 27.8
2017-Aug-15 12:59N 25°36' W 171°54'214 9.2 090 / 111016.7 28.1 27.8
2017-Aug-14 13:46N 24°24' W 168°12'1212.7 090 / 131016.7 27.9 28.0
2017-Aug-14 12:47N 24°18' W 168°00'1111.1 090 / 131017.1 27.5 28.1
2017-Aug-14 11:48N 24°18' W 167°48'1212.7 080 / 131017.3 28.2 28.1
2017-Aug-14 10:49N 24°12' W 167°36'1212.7 090 / 131017.8 28.0 28.0
2017-Aug-14 09:50N 24°06' W 167°24'5 5.6 090 / 131018.0 28.1 27.9
2017-Aug-14 08:51N 24°06' W 167°18'1212.7 080 / 141018.4 27.8 27.9
2017-Aug-14 07:52N 24°00' W 167°06'1111.1 090 / 151018.1 27.5 28.0
2017-Aug-14 06:53N 24°00' W 166°54'1312.5 090 / 131018.0 26.7 28.0
2017-Aug-14 05:53N 23°54' W 166°42'1111.2 070 / 131017.5 27.5 28.1
2017-Aug-14 04:54N 23°54' W 166°30'1312.7 080 / 111017.1 29.5 28.1
2017-Aug-14 03:55N 23°48' W 166°18'0 0.0 100 / 121016.9 29.2 28.2
2017-Aug-14 02:56N 23°48' W 166°18'0 0.0 100 / 121016.8 28.8 28.6
2017-Aug-14 01:57N 23°48' W 166°18'0 0.0 050 / 51016.9 30.4 28.6
2017-Aug-14 00:58N 23°48' W 166°18'12 3.7 080 / 101017.0 29.3 28.5
2017-Aug-13 21:46N 23°36' W 166°18'6 6.1 100 / 161018.2 28.6 9.327.9
2017-Aug-13 20:47N 23°30' W 166°18'6 6.1 090 / 131018.6 28.746.227.8
2017-Aug-13 19:48N 23°24' W 166°18'1312.8 090 / 111018.5 30.2 27.9
2017-Aug-13 18:49N 23°18' W 166°06'1111.2 090 / 131018.3 30.1 27.9
2017-Aug-13 17:50N 23°18' W 165°54'1312.8 090 / 131017.9 28.5 28.0
2017-Aug-13 16:51N 23°12' W 165°42'1111.0 090 / 141017.6 27.7 28.0
2017-Aug-13 15:51N 23°12' W 165°30'8 8.9 110 / 91017.4 26.6 28.0
2017-Aug-13 14:56N 23°06' W 165°24'1111.2 090 / 141017.1 27.8 28.0
2017-Aug-13 13:57N 23°06' W 165°12'1312.8 090 / 141017.1 27.7 28.0
2017-Aug-13 12:58N 23°00' W 165°00'1111.2 090 / 131017.0 27.8 27.7
2017-Aug-13 11:59N 23°00' W 164°48'2310.3 090 / 131017.4 27.9 27.8
2017-Aug-13 09:46N 22°54' W 164°24'1312.8 090 / 131018.0 28.2 27.8
2017-Aug-13 08:47N 22°48' W 164°12'1111.2 090 / 131018.0 28.1 28.0
2017-Aug-13 07:48N 22°48' W 164°00'8 8.3 090 / 131017.7 28.1 28.0
2017-Aug-13 06:49N 22°42' W 163°54'1111.3 090 / 131017.4 28.0 28.0
2017-Aug-13 05:50N 22°42' W 163°42'1312.8 090 / 131017.0 28.2 28.0
2017-Aug-13 04:51N 22°36' W 163°30'6 5.6 090 / 131016.7 29.2 28.0
2017-Aug-13 03:52N 22°36' W 163°24'1312.6 090 / 131016.5 30.5 28.1
2017-Aug-13 02:52N 22°30' W 163°12'1111.3 090 / 121016.5 30.5 28.2
2017-Aug-13 01:53N 22°30' W 163°00'1312.8 090 / 131016.5 29.5 28.1
2017-Aug-13 00:54N 22°24' W 162°48'18 9.0 080 / 131017.0 29.9 28.2
2017-Aug-12 22:56N 22°18' W 162°30'1111.3 080 / 131017.8 29.6 27.8
2017-Aug-12 21:57N 22°18' W 162°18'1312.8 090 / 131018.3 29.9 27.6
2017-Aug-12 20:58N 22°12' W 162°06'6 5.6 090 / 141018.4 29.5 27.5
2017-Aug-12 19:59N 22°12' W 162°00'   070 / 141018.5 28.9 27.6

Dump ship's entire track history